sensor_id;sensor_type;location;lat;lon;timestamp;pressure;altitude;pressure_sealevel;temperature;humidity
48630;BME280;34426;52.180;4.462;2023-03-16T00:01:53;101742.75;;;5.65;67.90
48630;BME280;34426;52.180;4.462;2023-03-16T00:04:19;101741.25;;;5.69;67.28
48630;BME280;34426;52.180;4.462;2023-03-16T00:06:44;101744.47;;;5.66;68.18
48630;BME280;34426;52.180;4.462;2023-03-16T00:09:10;101758.78;;;5.63;68.96
48630;BME280;34426;52.180;4.462;2023-03-16T00:11:37;101756.19;;;5.75;68.49
48630;BME280;34426;52.180;4.462;2023-03-16T00:14:03;101756.19;;;5.75;68.25
48630;BME280;34426;52.180;4.462;2023-03-16T00:16:28;101753.44;;;5.75;68.14
48630;BME280;34426;52.180;4.462;2023-03-16T00:18:54;101752.16;;;5.77;67.65
48630;BME280;34426;52.180;4.462;2023-03-16T00:21:19;101746.81;;;5.82;69.08
48630;BME280;34426;52.180;4.462;2023-03-16T00:23:45;101747.88;;;5.81;69.13
48630;BME280;34426;52.180;4.462;2023-03-16T00:26:10;101739.97;;;5.78;68.06
48630;BME280;34426;52.180;4.462;2023-03-16T00:28:38;101735.75;;;5.89;67.82
48630;BME280;34426;52.180;4.462;2023-03-16T00:31:07;101725.47;;;5.76;67.85
48630;BME280;34426;52.180;4.462;2023-03-16T00:33:33;101721.19;;;5.80;67.69
48630;BME280;34426;52.180;4.462;2023-03-16T00:35:59;101729.09;;;5.77;68.89
48630;BME280;34426;52.180;4.462;2023-03-16T00:38:25;101725.88;;;5.80;68.52
48630;BME280;34426;52.180;4.462;2023-03-16T00:40:51;101722.47;;;5.78;69.10
48630;BME280;34426;52.180;4.462;2023-03-16T00:43:16;101714.16;;;5.71;69.45
48630;BME280;34426;52.180;4.462;2023-03-16T00:45:43;101719.47;;;5.79;68.45
48630;BME280;34426;52.180;4.462;2023-03-16T00:48:09;101725.03;;;5.79;69.43
48630;BME280;34426;52.180;4.462;2023-03-16T00:50:35;101712.22;;;5.78;69.61
48630;BME280;34426;52.180;4.462;2023-03-16T00:53:01;101707.50;;;5.85;69.43
48630;BME280;34426;52.180;4.462;2023-03-16T00:55:26;101700.47;;;5.69;70.21
48630;BME280;34426;52.180;4.462;2023-03-16T00:57:52;101695.34;;;5.73;70.96
48630;BME280;34426;52.180;4.462;2023-03-16T01:00:18;101689.59;;;5.68;71.22
48630;BME280;34426;52.180;4.462;2023-03-16T01:02:45;101683.84;;;5.69;71.49
48630;BME280;34426;52.180;4.462;2023-03-16T01:05:11;101690.66;;;5.67;72.06
48630;BME280;34426;52.180;4.462;2023-03-16T01:07:40;101692.19;;;5.63;71.34
48630;BME280;34426;52.180;4.462;2023-03-16T01:10:08;101683.63;;;5.64;72.03
48630;BME280;34426;52.180;4.462;2023-03-16T01:12:34;101683.88;;;5.63;71.37
48630;BME280;34426;52.180;4.462;2023-03-16T01:14:59;101687.72;;;5.62;71.85
48630;BME280;34426;52.180;4.462;2023-03-16T01:17:25;101674.66;;;5.69;71.81
48630;BME280;34426;52.180;4.462;2023-03-16T01:19:52;101684.88;;;5.82;70.07
48630;BME280;34426;52.180;4.462;2023-03-16T01:22:18;101669.28;;;5.81;70.98
48630;BME280;34426;52.180;4.462;2023-03-16T01:24:44;101664.41;;;5.69;71.63
48630;BME280;34426;52.180;4.462;2023-03-16T01:27:10;101663.97;;;5.66;72.44
48630;BME280;34426;52.180;4.462;2023-03-16T01:29:37;101662.28;;;5.65;72.50
48630;BME280;34426;52.180;4.462;2023-03-16T01:32:03;101649.47;;;5.64;72.78
48630;BME280;34426;52.180;4.462;2023-03-16T01:34:29;101650.09;;;5.66;73.35
48630;BME280;34426;52.180;4.462;2023-03-16T01:36:56;101655.88;;;5.64;72.72
48630;BME280;34426;52.180;4.462;2023-03-16T01:39:22;101647.97;;;5.68;73.14
48630;BME280;34426;52.180;4.462;2023-03-16T01:41:47;101646.69;;;5.71;73.68
48630;BME280;34426;52.180;4.462;2023-03-16T01:44:16;101642.25;;;5.63;74.01
48630;BME280;34426;52.180;4.462;2023-03-16T01:46:42;101634.34;;;5.60;73.30
48630;BME280;34426;52.180;4.462;2023-03-16T01:49:10;101633.72;;;5.58;74.88
48630;BME280;34426;52.180;4.462;2023-03-16T01:51:39;101639.25;;;5.58;75.18
48630;BME280;34426;52.180;4.462;2023-03-16T01:54:11;101635.84;;;5.56;75.36
48630;BME280;34426;52.180;4.462;2023-03-16T01:56:41;101631.13;;;5.63;74.54
48630;BME280;34426;52.180;4.462;2023-03-16T01:59:12;101624.31;;;5.59;74.93
48630;BME280;34426;52.180;4.462;2023-03-16T02:01:39;101615.34;;;5.57;75.37
48630;BME280;34426;52.180;4.462;2023-03-16T02:04:12;101621.72;;;5.64;75.32
48630;BME280;34426;52.180;4.462;2023-03-16T02:06:39;101613.59;;;5.69;75.03
48630;BME280;34426;52.180;4.462;2023-03-16T02:09:06;101613.13;;;5.85;73.63
48630;BME280;34426;52.180;4.462;2023-03-16T02:11:32;101614.00;;;5.92;73.59
48630;BME280;34426;52.180;4.462;2023-03-16T02:14:03;101603.75;;;5.93;73.28
48630;BME280;34426;52.180;4.462;2023-03-16T02:16:32;101597.97;;;5.94;73.64
48630;BME280;34426;52.180;4.462;2023-03-16T02:18:57;101600.13;;;5.92;74.32
48630;BME280;34426;52.180;4.462;2023-03-16T02:21:30;101599.69;;;5.95;73.63
48630;BME280;34426;52.180;4.462;2023-03-16T02:23:58;101588.31;;;6.04;73.55
48630;BME280;34426;52.180;4.462;2023-03-16T02:26:29;101587.50;;;5.96;73.71
48630;BME280;34426;52.180;4.462;2023-03-16T02:29:10;101586.22;;;5.92;74.68
48630;BME280;34426;52.180;4.462;2023-03-16T02:31:39;101593.25;;;6.02;73.79
48630;BME280;34426;52.180;4.462;2023-03-16T02:34:06;101578.94;;;6.05;74.04
48630;BME280;34426;52.180;4.462;2023-03-16T02:36:32;101590.91;;;5.98;74.49
48630;BME280;34426;52.180;4.462;2023-03-16T02:38:58;101582.56;;;5.98;74.60
48630;BME280;34426;52.180;4.462;2023-03-16T02:41:23;101583.63;;;6.04;74.39
48630;BME280;34426;52.180;4.462;2023-03-16T02:43:51;101580.66;;;5.99;74.90
48630;BME280;34426;52.180;4.462;2023-03-16T02:46:19;101581.50;;;5.99;74.99
48630;BME280;34426;52.180;4.462;2023-03-16T02:48:50;101578.53;;;5.94;75.89
48630;BME280;34426;52.180;4.462;2023-03-16T02:51:17;101568.06;;;5.96;75.68
48630;BME280;34426;52.180;4.462;2023-03-16T02:53:43;101583.84;;;6.03;75.88
48630;BME280;34426;52.180;4.462;2023-03-16T02:56:08;101576.81;;;6.00;76.38
48630;BME280;34426;52.180;4.462;2023-03-16T02:58:34;101567.00;;;5.97;75.63
48630;BME280;34426;52.180;4.462;2023-03-16T03:01:00;101570.22;;;5.94;76.34
48630;BME280;34426;52.180;4.462;2023-03-16T03:03:26;101570.00;;;5.89;77.02
48630;BME280;34426;52.180;4.462;2023-03-16T03:05:53;101564.44;;;5.96;76.76
48630;BME280;34426;52.180;4.462;2023-03-16T03:08:18;101558.03;;;5.95;77.32
48630;BME280;34426;52.180;4.462;2023-03-16T03:10:44;101563.16;;;5.98;77.40
48630;BME280;34426;52.180;4.462;2023-03-16T03:13:10;101570.00;;;5.96;77.36
48630;BME280;34426;52.180;4.462;2023-03-16T03:15:35;101554.63;;;5.93;78.22
48630;BME280;34426;52.180;4.462;2023-03-16T03:18:06;101554.63;;;5.93;78.54
48630;BME280;34426;52.180;4.462;2023-03-16T03:20:32;101541.38;;;5.95;78.76
48630;BME280;34426;52.180;4.462;2023-03-16T03:22:59;101541.38;;;5.95;78.87
48630;BME280;34426;52.180;4.462;2023-03-16T03:25:24;101540.50;;;5.88;79.35
48630;BME280;34426;52.180;4.462;2023-03-16T03:27:50;101540.53;;;5.95;79.12
48630;BME280;34426;52.180;4.462;2023-03-16T03:30:18;101537.09;;;5.93;79.73
48630;BME280;34426;52.180;4.462;2023-03-16T03:32:44;101532.19;;;5.88;79.74
48630;BME280;34426;52.180;4.462;2023-03-16T03:35:11;101532.00;;;5.83;80.11
48630;BME280;34426;52.180;4.462;2023-03-16T03:37:37;101523.22;;;5.86;79.90
48630;BME280;34426;52.180;4.462;2023-03-16T03:40:06;101533.25;;;5.87;80.16
48630;BME280;34426;52.180;4.462;2023-03-16T03:42:32;101527.28;;;5.84;80.37
48630;BME280;34426;52.180;4.462;2023-03-16T03:44:57;101523.22;;;5.93;80.30
48630;BME280;34426;52.180;4.462;2023-03-16T03:47:23;101520.44;;;5.86;79.74
48630;BME280;34426;52.180;4.462;2023-03-16T03:49:50;101517.03;;;5.91;80.46
48630;BME280;34426;52.180;4.462;2023-03-16T03:52:15;101512.56;;;5.90;80.38
48630;BME280;34426;52.180;4.462;2023-03-16T03:54:44;101516.81;;;5.92;80.62
48630;BME280;34426;52.180;4.462;2023-03-16T03:57:11;101518.53;;;5.93;79.91
48630;BME280;34426;52.180;4.462;2023-03-16T03:59:36;101519.16;;;5.95;79.99
48630;BME280;34426;52.180;4.462;2023-03-16T04:02:02;101526.44;;;5.90;80.93
48630;BME280;34426;52.180;4.462;2023-03-16T04:04:28;101515.31;;;5.96;79.98
48630;BME280;34426;52.180;4.462;2023-03-16T04:06:54;101515.31;;;5.96;80.15
48630;BME280;34426;52.180;4.462;2023-03-16T04:09:19;101520.00;;;5.96;80.69
48630;BME280;34426;52.180;4.462;2023-03-16T04:11:45;101511.91;;;5.88;80.54
48630;BME280;34426;52.180;4.462;2023-03-16T04:14:12;101507.63;;;5.98;79.84
48630;BME280;34426;52.180;4.462;2023-03-16T04:16:37;101510.84;;;5.95;79.92
48630;BME280;34426;52.180;4.462;2023-03-16T04:19:03;101502.06;;;5.98;79.28
48630;BME280;34426;52.180;4.462;2023-03-16T04:21:28;101509.31;;;5.99;79.84
48630;BME280;34426;52.180;4.462;2023-03-16T04:23:56;101507.81;;;6.04;80.32
48630;BME280;34426;52.180;4.462;2023-03-16T04:26:21;101502.47;;;6.02;79.72
48630;BME280;34426;52.180;4.462;2023-03-16T04:28:47;101498.63;;;6.03;79.95
48630;BME280;34426;52.180;4.462;2023-03-16T04:31:14;101490.50;;;6.02;79.92
48630;BME280;34426;52.180;4.462;2023-03-16T04:33:39;101493.50;;;6.00;80.20
48630;BME280;34426;52.180;4.462;2023-03-16T04:36:06;101482.19;;;6.02;79.87
48630;BME280;34426;52.180;4.462;2023-03-16T04:38:32;101474.09;;;5.93;79.91
48630;BME280;34426;52.180;4.462;2023-03-16T04:40:59;101474.31;;;5.92;80.53
48630;BME280;34426;52.180;4.462;2023-03-16T04:43:25;101483.28;;;5.87;80.73
48630;BME280;34426;52.180;4.462;2023-03-16T04:45:51;101470.47;;;5.86;81.11
48630;BME280;34426;52.180;4.462;2023-03-16T04:48:18;101477.31;;;5.90;81.19
48630;BME280;34426;52.180;4.462;2023-03-16T04:50:43;101474.53;;;5.90;81.54
48630;BME280;34426;52.180;4.462;2023-03-16T04:53:09;101474.97;;;5.87;81.65
48630;BME280;34426;52.180;4.462;2023-03-16T04:55:34;101473.47;;;5.91;82.26
48630;BME280;34426;52.180;4.462;2023-03-16T04:58:00;101470.91;;;5.83;82.24
48630;BME280;34426;52.180;4.462;2023-03-16T05:00:26;101457.22;;;5.88;82.70
48630;BME280;34426;52.180;4.462;2023-03-16T05:02:51;101460.69;;;5.77;82.57
48630;BME280;34426;52.180;4.462;2023-03-16T05:05:20;101461.16;;;5.74;83.56
48630;BME280;34426;52.180;4.462;2023-03-16T05:07:46;101456.00;;;5.78;83.85
48630;BME280;34426;52.180;4.462;2023-03-16T05:10:14;101450.03;;;5.74;83.96
48630;BME280;34426;52.180;4.462;2023-03-16T05:12:40;101444.50;;;5.74;83.49
48630;BME280;34426;52.180;4.462;2023-03-16T05:15:07;101439.13;;;5.79;84.00
48630;BME280;34426;52.180;4.462;2023-03-16T05:17:33;101435.97;;;5.69;84.15
48630;BME280;34426;52.180;4.462;2023-03-16T05:19:59;101431.88;;;5.78;84.27
48630;BME280;34426;52.180;4.462;2023-03-16T05:22:26;101437.69;;;5.70;84.60
48630;BME280;34426;52.180;4.462;2023-03-16T05:24:52;101437.97;;;5.62;84.96
48630;BME280;34426;52.180;4.462;2023-03-16T05:27:21;101435.84;;;5.57;85.32
48630;BME280;34426;52.180;4.462;2023-03-16T05:29:47;101435.78;;;5.64;85.60
48630;BME280;34426;52.180;4.462;2023-03-16T05:32:12;101440.25;;;5.65;85.49
48630;BME280;34426;52.180;4.462;2023-03-16T05:34:41;101438.97;;;5.67;85.23
48630;BME280;34426;52.180;4.462;2023-03-16T05:37:07;101437.03;;;5.68;85.40
48630;BME280;34426;52.180;4.462;2023-03-16T05:39:34;101439.66;;;5.63;84.85
48630;BME280;34426;52.180;4.462;2023-03-16T05:42:00;101430.88;;;5.66;84.57
48630;BME280;34426;52.180;4.462;2023-03-16T05:44:25;101435.13;;;5.68;84.81
48630;BME280;34426;52.180;4.462;2023-03-16T05:46:51;101432.41;;;5.62;84.95
48630;BME280;34426;52.180;4.462;2023-03-16T05:49:17;101426.22;;;5.60;85.45
48630;BME280;34426;52.180;4.462;2023-03-16T05:51:42;101437.31;;;5.60;85.16
48630;BME280;34426;52.180;4.462;2023-03-16T05:54:08;101430.06;;;5.59;85.78
48630;BME280;34426;52.180;4.462;2023-03-16T05:56:35;101430.50;;;5.56;86.39
48630;BME280;34426;52.180;4.462;2023-03-16T05:59:00;101427.31;;;5.59;86.15
48630;BME280;34426;52.180;4.462;2023-03-16T06:01:26;101436.69;;;5.58;86.35
48630;BME280;34426;52.180;4.462;2023-03-16T06:03:52;101430.66;;;5.67;85.95
48630;BME280;34426;52.180;4.462;2023-03-16T06:06:18;101430.00;;;5.65;86.38
48630;BME280;34426;52.180;4.462;2023-03-16T06:08:43;101420.06;;;5.58;86.01
48630;BME280;34426;52.180;4.462;2023-03-16T06:11:09;101417.47;;;5.63;85.96
48630;BME280;34426;52.180;4.462;2023-03-16T06:13:36;101423.84;;;5.63;85.29
48630;BME280;34426;52.180;4.462;2023-03-16T06:16:02;101434.72;;;5.65;85.84
48630;BME280;34426;52.180;4.462;2023-03-16T06:18:28;101419.59;;;5.61;86.33
48630;BME280;34426;52.180;4.462;2023-03-16T06:20:54;101404.41;;;5.63;85.93
48630;BME280;34426;52.180;4.462;2023-03-16T06:23:20;101411.72;;;5.58;86.40
48630;BME280;34426;52.180;4.462;2023-03-16T06:25:46;101406.53;;;5.68;86.51
48630;BME280;34426;52.180;4.462;2023-03-16T06:28:12;101399.91;;;5.69;86.11
48630;BME280;34426;52.180;4.462;2023-03-16T06:30:39;101403.28;;;5.71;86.05
48630;BME280;34426;52.180;4.462;2023-03-16T06:33:14;101396.28;;;5.68;85.67
48630;BME280;34426;52.180;4.462;2023-03-16T06:35:42;101394.16;;;5.64;86.00
48630;BME280;34426;52.180;4.462;2023-03-16T06:38:09;101400.56;;;5.64;86.00
48630;BME280;34426;52.180;4.462;2023-03-16T06:40:35;101392.66;;;5.68;85.44
48630;BME280;34426;52.180;4.462;2023-03-16T06:43:04;101391.56;;;5.69;85.31
48630;BME280;34426;52.180;4.462;2023-03-16T06:45:29;101400.13;;;5.67;85.42
48630;BME280;34426;52.180;4.462;2023-03-16T06:47:59;101400.81;;;5.63;85.67
48630;BME280;34426;52.180;4.462;2023-03-16T06:50:25;101399.34;;;5.60;85.83
48630;BME280;34426;52.180;4.462;2023-03-16T06:52:56;101387.59;;;5.58;85.60
48630;BME280;34426;52.180;4.462;2023-03-16T06:55:25;101400.63;;;5.58;86.01
48630;BME280;34426;52.180;4.462;2023-03-16T06:57:51;101389.00;;;5.67;86.49
48630;BME280;34426;52.180;4.462;2023-03-16T07:00:26;101389.09;;;5.61;86.08
48630;BME280;34426;52.180;4.462;2023-03-16T07:02:54;101379.44;;;5.63;86.69
48630;BME280;34426;52.180;4.462;2023-03-16T07:05:23;101380.91;;;5.66;86.05
48630;BME280;34426;52.180;4.462;2023-03-16T07:07:51;101379.44;;;5.63;86.12
48630;BME280;34426;52.180;4.462;2023-03-16T07:10:17;101374.72;;;5.64;84.99
48630;BME280;34426;52.180;4.462;2023-03-16T07:12:45;101384.06;;;5.76;85.22
48630;BME280;34426;52.180;4.462;2023-03-16T07:15:14;101387.25;;;5.80;84.78
48630;BME280;34426;52.180;4.462;2023-03-16T07:17:39;101379.13;;;5.78;84.27
48630;BME280;34426;52.180;4.462;2023-03-16T07:20:09;101376.09;;;5.86;84.55
48630;BME280;34426;52.180;4.462;2023-03-16T07:22:44;101370.53;;;5.86;84.53
48630;BME280;34426;52.180;4.462;2023-03-16T07:25:17;101366.91;;;5.86;83.76
48630;BME280;34426;52.180;4.462;2023-03-16T07:27:46;101377.75;;;6.00;83.44
48630;BME280;34426;52.180;4.462;2023-03-16T07:30:16;101383.28;;;6.00;82.43
48630;BME280;34426;52.180;4.462;2023-03-16T07:32:42;101391.31;;;6.09;82.54
48630;BME280;34426;52.180;4.462;2023-03-16T07:35:08;101383.13;;;6.20;81.95
48630;BME280;34426;52.180;4.462;2023-03-16T07:37:38;101384.75;;;6.28;81.77
48630;BME280;34426;52.180;4.462;2023-03-16T07:40:07;101388.06;;;6.43;82.00
48630;BME280;34426;52.180;4.462;2023-03-16T07:42:37;101385.44;;;6.48;81.07
48630;BME280;34426;52.180;4.462;2023-03-16T07:45:03;101390.53;;;6.51;81.33
48630;BME280;34426;52.180;4.462;2023-03-16T07:47:32;101387.50;;;6.53;81.40
48630;BME280;34426;52.180;4.462;2023-03-16T07:49:58;101384.50;;;6.54;80.16
48630;BME280;34426;52.180;4.462;2023-03-16T07:52:24;101395.94;;;6.46;80.24
48630;BME280;34426;52.180;4.462;2023-03-16T07:54:51;101390.06;;;6.54;79.60
48630;BME280;34426;52.180;4.462;2023-03-16T07:57:18;101398.00;;;6.51;79.79
48630;BME280;34426;52.180;4.462;2023-03-16T07:59:44;101393.00;;;6.59;79.35
48630;BME280;34426;52.180;4.462;2023-03-16T08:02:11;101392.16;;;6.59;78.66
48630;BME280;34426;52.180;4.462;2023-03-16T08:04:41;101396.41;;;6.61;78.85
48630;BME280;34426;52.180;4.462;2023-03-16T08:07:06;101390.34;;;6.71;78.60
48630;BME280;34426;52.180;4.462;2023-03-16T08:09:32;101387.31;;;6.73;77.44
48630;BME280;34426;52.180;4.462;2023-03-16T08:11:59;101375.53;;;6.77;76.74
48630;BME280;34426;52.180;4.462;2023-03-16T08:14:25;101378.22;;;6.84;76.02
48630;BME280;34426;52.180;4.462;2023-03-16T08:16:50;101389.75;;;6.87;76.60
48630;BME280;34426;52.180;4.462;2023-03-16T08:19:16;101391.84;;;6.92;75.70
48630;BME280;34426;52.180;4.462;2023-03-16T08:21:41;101389.66;;;6.94;75.01
48630;BME280;34426;52.180;4.462;2023-03-16T08:24:07;101379.75;;;6.98;75.42
48630;BME280;34426;52.180;4.462;2023-03-16T08:26:33;101389.19;;;6.97;75.49
48630;BME280;34426;52.180;4.462;2023-03-16T08:29:00;101376.34;;;6.96;74.61
48630;BME280;34426;52.180;4.462;2023-03-16T08:31:25;101373.81;;;6.94;74.24
48630;BME280;34426;52.180;4.462;2023-03-16T08:33:51;101370.56;;;6.97;74.53
48630;BME280;34426;52.180;4.462;2023-03-16T08:36:21;101362.16;;;7.04;74.35
48630;BME280;34426;52.180;4.462;2023-03-16T08:38:47;101360.91;;;7.00;73.76
48630;BME280;34426;52.180;4.462;2023-03-16T08:41:13;101354.97;;;7.15;73.66
48630;BME280;34426;52.180;4.462;2023-03-16T08:43:39;101355.50;;;7.23;73.11
48630;BME280;34426;52.180;4.462;2023-03-16T08:46:06;101356.72;;;7.27;72.36
48630;BME280;34426;52.180;4.462;2023-03-16T08:48:31;101353.75;;;7.41;72.14
48630;BME280;34426;52.180;4.462;2023-03-16T08:50:57;101350.47;;;7.62;72.42
48630;BME280;34426;52.180;4.462;2023-03-16T08:53:25;101361.66;;;7.74;72.42
48630;BME280;34426;52.180;4.462;2023-03-16T08:55:51;101355.00;;;7.86;70.02
48630;BME280;34426;52.180;4.462;2023-03-16T08:58:16;101338.16;;;7.81;69.36
48630;BME280;34426;52.180;4.462;2023-03-16T09:00:42;101354.06;;;7.92;70.07
48630;BME280;34426;52.180;4.462;2023-03-16T09:03:09;101355.56;;;8.07;70.06
48630;BME280;34426;52.180;4.462;2023-03-16T09:05:35;101343.44;;;8.13;68.99
48630;BME280;34426;52.180;4.462;2023-03-16T09:08:04;101337.63;;;8.26;69.16
48630;BME280;34426;52.180;4.462;2023-03-16T09:10:29;101337.06;;;8.36;68.68
48630;BME280;34426;52.180;4.462;2023-03-16T09:12:55;101335.25;;;8.41;67.53
48630;BME280;34426;52.180;4.462;2023-03-16T09:15:25;101341.69;;;8.42;66.92
48630;BME280;34426;52.180;4.462;2023-03-16T09:17:54;101336.09;;;8.42;66.91
48630;BME280;34426;52.180;4.462;2023-03-16T09:20:21;101344.13;;;8.50;66.11
48630;BME280;34426;52.180;4.462;2023-03-16T09:22:47;101340.59;;;8.54;66.51
48630;BME280;34426;52.180;4.462;2023-03-16T09:25:13;101343.38;;;8.66;65.96
48630;BME280;34426;52.180;4.462;2023-03-16T09:27:42;101339.84;;;8.71;65.01
48630;BME280;34426;52.180;4.462;2023-03-16T09:30:09;101331.72;;;8.81;64.67
48630;BME280;34426;52.180;4.462;2023-03-16T09:32:40;101326.97;;;8.93;64.11
48630;BME280;34426;52.180;4.462;2023-03-16T09:35:10;101344.06;;;8.85;63.22
48630;BME280;34426;52.180;4.462;2023-03-16T09:37:37;101328.66;;;8.94;62.85
48630;BME280;34426;52.180;4.462;2023-03-16T09:40:03;101332.78;;;9.03;62.47
48630;BME280;34426;52.180;4.462;2023-03-16T09:42:36;101328.09;;;9.20;62.61
48630;BME280;34426;52.180;4.462;2023-03-16T09:45:13;101331.22;;;9.36;60.83
48630;BME280;34426;52.180;4.462;2023-03-16T09:47:42;101331.84;;;9.54;61.59
48630;BME280;34426;52.180;4.462;2023-03-16T09:50:21;101328.59;;;9.74;61.23
48630;BME280;34426;52.180;4.462;2023-03-16T09:52:55;101324.41;;;9.88;61.25
48630;BME280;34426;52.180;4.462;2023-03-16T09:55:31;101323.03;;;9.91;59.64
48630;BME280;34426;52.180;4.462;2023-03-16T09:57:59;101324.38;;;10.05;58.42
48630;BME280;34426;52.180;4.462;2023-03-16T10:00:27;101329.19;;;10.21;57.99
48630;BME280;34426;52.180;4.462;2023-03-16T10:03:01;101329.00;;;10.28;59.11
48630;BME280;34426;52.180;4.462;2023-03-16T10:05:31;101324.44;;;10.39;58.98
48630;BME280;34426;52.180;4.462;2023-03-16T10:08:07;101318.50;;;10.35;58.97
48630;BME280;34426;52.180;4.462;2023-03-16T10:10:44;101318.44;;;10.30;58.84
48630;BME280;34426;52.180;4.462;2023-03-16T10:13:23;101330.78;;;10.34;57.94
48630;BME280;34426;52.180;4.462;2023-03-16T10:15:52;101322.25;;;10.24;59.07
48630;BME280;34426;52.180;4.462;2023-03-16T10:18:29;101312.75;;;10.25;58.30
48630;BME280;34426;52.180;4.462;2023-03-16T10:21:01;101318.69;;;10.28;57.85
48630;BME280;34426;52.180;4.462;2023-03-16T10:23:31;101330.72;;;10.29;58.36
48630;BME280;34426;52.180;4.462;2023-03-16T10:25:58;101323.00;;;10.36;58.63
48630;BME280;34426;52.180;4.462;2023-03-16T10:28:25;101320.34;;;10.46;58.32
48630;BME280;34426;52.180;4.462;2023-03-16T10:30:53;101315.16;;;10.55;57.89
48630;BME280;34426;52.180;4.462;2023-03-16T10:33:22;101310.97;;;10.74;57.93
48630;BME280;34426;52.180;4.462;2023-03-16T10:35:51;101301.16;;;10.72;56.84
48630;BME280;34426;52.180;4.462;2023-03-16T10:38:29;101294.00;;;10.81;57.63
48630;BME280;34426;52.180;4.462;2023-03-16T10:40:55;101279.47;;;10.84;56.45
48630;BME280;34426;52.180;4.462;2023-03-16T10:43:21;101278.84;;;10.77;57.04
48630;BME280;34426;52.180;4.462;2023-03-16T10:45:48;101268.16;;;10.74;56.71
48630;BME280;34426;52.180;4.462;2023-03-16T10:48:16;101292.69;;;10.66;57.48
48630;BME280;34426;52.180;4.462;2023-03-16T10:50:42;101282.94;;;10.69;57.26
48630;BME280;34426;52.180;4.462;2023-03-16T10:53:15;101280.66;;;10.88;56.71
48630;BME280;34426;52.180;4.462;2023-03-16T10:55:44;101264.00;;;10.76;56.73
48630;BME280;34426;52.180;4.462;2023-03-16T10:58:21;101268.34;;;10.89;56.10
48630;BME280;34426;52.180;4.462;2023-03-16T11:00:47;101253.25;;;10.90;55.86
48630;BME280;34426;52.180;4.462;2023-03-16T11:03:20;101265.47;;;10.84;56.06
48630;BME280;34426;52.180;4.462;2023-03-16T11:05:55;101264.44;;;10.90;56.00
48630;BME280;34426;52.180;4.462;2023-03-16T11:08:26;101267.72;;;10.82;55.83
48630;BME280;34426;52.180;4.462;2023-03-16T11:10:56;101257.91;;;10.79;56.80
48630;BME280;34426;52.180;4.462;2023-03-16T11:13:24;101262.75;;;10.67;56.15
48630;BME280;34426;52.180;4.462;2023-03-16T11:15:59;101264.34;;;10.80;56.81
48630;BME280;34426;52.180;4.462;2023-03-16T11:18:28;101253.50;;;10.88;56.42
48630;BME280;34426;52.180;4.462;2023-03-16T11:21:02;101259.88;;;10.84;55.40
48630;BME280;34426;52.180;4.462;2023-03-16T11:23:33;101253.72;;;10.82;55.70
48630;BME280;34426;52.180;4.462;2023-03-16T11:26:09;101251.97;;;10.76;55.59
48630;BME280;34426;52.180;4.462;2023-03-16T11:28:44;101240.94;;;10.91;55.59
48630;BME280;34426;52.180;4.462;2023-03-16T11:31:18;101247.47;;;10.96;55.60
48630;BME280;34426;52.180;4.462;2023-03-16T11:33:46;101244.72;;;11.02;54.76
48630;BME280;34426;52.180;4.462;2023-03-16T11:36:22;101243.53;;;11.19;54.52
48630;BME280;34426;52.180;4.462;2023-03-16T11:38:55;101236.84;;;11.20;53.93
48630;BME280;34426;52.180;4.462;2023-03-16T11:41:32;101240.25;;;11.27;53.79
48630;BME280;34426;52.180;4.462;2023-03-16T11:44:06;101242.53;;;11.30;52.76
48630;BME280;34426;52.180;4.462;2023-03-16T11:46:39;101240.41;;;11.43;52.88
48630;BME280;34426;52.180;4.462;2023-03-16T11:49:32;101235.03;;;11.63;53.29
48630;BME280;34426;52.180;4.462;2023-03-16T11:52:03;101242.47;;;11.79;52.38
48630;BME280;34426;52.180;4.462;2023-03-16T11:54:44;101235.84;;;11.90;51.68
48630;BME280;34426;52.180;4.462;2023-03-16T11:57:27;101229.19;;;11.96;50.71
48630;BME280;34426;52.180;4.462;2023-03-16T12:00:15;101235.31;;;11.93;49.63
48630;BME280;34426;52.180;4.462;2023-03-16T12:02:53;101228.47;;;11.79;49.07
48630;BME280;34426;52.180;4.462;2023-03-16T12:05:35;101220.81;;;12.02;49.66
48630;BME280;34426;52.180;4.462;2023-03-16T12:08:13;101223.59;;;12.02;48.87
48630;BME280;34426;52.180;4.462;2023-03-16T12:10:47;101216.41;;;12.11;49.41
48630;BME280;34426;52.180;4.462;2023-03-16T12:13:28;101212.94;;;12.41;49.15
48630;BME280;34426;52.180;4.462;2023-03-16T12:15:58;101221.63;;;12.39;47.56
48630;BME280;34426;52.180;4.462;2023-03-16T12:18:28;101203.06;;;12.33;47.16
48630;BME280;34426;52.180;4.462;2023-03-16T12:20:57;101209.44;;;12.23;46.80
48630;BME280;34426;52.180;4.462;2023-03-16T12:23:28;101199.41;;;12.32;47.21
48630;BME280;34426;52.180;4.462;2023-03-16T12:25:57;101199.50;;;12.48;47.05
48630;BME280;34426;52.180;4.462;2023-03-16T12:28:27;101189.94;;;12.44;46.48
48630;BME280;34426;52.180;4.462;2023-03-16T12:31:05;101184.97;;;12.61;46.15
48630;BME280;34426;52.180;4.462;2023-03-16T12:33:42;101159.13;;;12.54;45.03
48630;BME280;34426;52.180;4.462;2023-03-16T12:36:27;101176.88;;;12.70;45.76
48630;BME280;34426;52.180;4.462;2023-03-16T12:39:01;101178.38;;;12.97;45.32
48630;BME280;34426;52.180;4.462;2023-03-16T12:41:36;101177.22;;;12.83;44.90
48630;BME280;34426;52.180;4.462;2023-03-16T12:44:13;101176.38;;;12.83;45.31
48630;BME280;34426;52.180;4.462;2023-03-16T12:46:47;101172.94;;;12.71;45.28
48630;BME280;34426;52.180;4.462;2023-03-16T12:49:15;101167.63;;;12.74;45.57
48630;BME280;34426;52.180;4.462;2023-03-16T12:51:42;101162.28;;;12.73;45.09
48630;BME280;34426;52.180;4.462;2023-03-16T12:54:18;101160.53;;;12.56;45.35
48630;BME280;34426;52.180;4.462;2023-03-16T12:56:47;101159.72;;;12.56;45.48
48630;BME280;34426;52.180;4.462;2023-03-16T12:59:17;101147.44;;;12.77;46.82
48630;BME280;34426;52.180;4.462;2023-03-16T13:01:44;101157.31;;;12.95;45.23
48630;BME280;34426;52.180;4.462;2023-03-16T13:04:14;101135.06;;;12.78;45.74